Sonic Adventure (DX): Overall Rankings

Records: Times | Rings | Scores | Races | Bosses | Freestyle
Leaders: Times | Rings | Scores | Races | Bosses | Freestyle | Overall
Rank Player Percent Points Date
1 Sonicspeedruner 98.0% 343 05-25-18
2 Gamepro011 97.9% 356 05-25-18
3 DarkPolarNight 96.7% 571 05-25-18
4 Jawzun 93.1% 1192 05-25-18
5 Dashjump 91.6% 1459 05-25-18
6 DarkspinesSonic 89.8% 1777 05-25-18
7 Avento128bits 89.6% 1813 05-25-18
8 ike6252 89.4% 1846 05-25-18
9 F-Man 87.6% 2162 05-25-18
10 Coolfansonic 87.1% 2248 05-25-18
11 HyperSonic7701 84.2% 2743 05-25-18
12 TheRealShadnic 83.9% 2798 05-25-18
13 yoshifan 82.5% 3040 05-25-18
14 frankoredstrato 82.2% 3107 05-25-18
15 francisco 81.2% 3276 05-25-18
16 Marth 81.0% 3307 05-25-18
17 InferSaime 79.8% 3527 05-25-18
18 PfoSonic 79.3% 3607 05-25-18
19 Paragod 78.9% 3680 05-25-18
20 THC98 78.0% 3834 05-25-18
21 Stefan 75.6% 4250 05-25-18
22 RPGnutter 73.5% 4620 05-25-18
23 bertin 73.4% 4640 05-25-18
24 sonicam 71.3% 5013 05-25-18
25 drminus 69.9% 5242 05-25-18
26 xXMegaManXx 69.8% 5258 05-25-18
27 Dekuboy 67.1% 5742 05-25-18
28 chainchumper 65.8% 5968 05-25-18
29 Combo 65.3% 6044 05-25-18
30 chaos shadow 64.8% 6145 05-25-18
31 SkyLights 64.2% 6242 05-25-18
32 Diamond 62.2% 6601 05-25-18
33 Auriman1 60.0% 6972 05-25-18
34 GerbilSoft 60.0% 6975 05-25-18
35 OmegaDJ 60.0% 6980 05-25-18
36 magnum12 59.2% 7122 05-25-18
37 Thorn 57.0% 7507 05-25-18
38 P1 Pause 56.8% 7534 05-25-18
39 mike89 55.8% 7712 05-25-18
40 Dave Cramer 53.8% 8054 05-25-18
41 Groudon199 53.8% 8061 05-25-18
42 Parax 53.1% 8181 05-25-18
43 Shadow Jacky 52.7% 8258 05-25-18
44 Psymar 47.7% 9121 05-25-18
45 Arch 46.8% 9279 05-25-18
46 Chao_Fan 45.9% 9446 05-25-18
47 mauserman 45.1% 9588 05-25-18
48 Quartz 44.8% 9626 05-25-18
49 teamblackarms 44.0% 9769 05-25-18
50 Calfd 43.4% 9873 05-25-18
51 Psyknux 43.2% 9907 05-25-18
52 James_Bertolli 43.0% 9943 05-25-18
53 NintenDan 42.6% 10018 05-25-18
54 Webber3000 42.1% 10110 05-25-18
55 Turbos 41.9% 10134 05-25-18
56 Ring Rush 41.7% 10176 05-25-18
57 Cream147 41.5% 10209 05-25-18
58 videogamemaster777 41.4% 10229 05-25-18
59 Fr3nZy 41.3% 10246 05-25-18
60 Siavash Tazari 41.2% 10265 05-25-18
61 buddychaos0415 40.6% 10367 05-25-18
62 SadisticMystic 40.1% 10448 05-25-18
63 ethmar 39.7% 10520 05-25-18
64 eggFL 39.3% 10592 05-25-18
65 SB737 37.7% 10869 05-25-18
66 supersonic465 37.3% 10947 05-25-18
67 supersonicfan 36.6% 11058 05-25-18
68 FuzZerd 35.5% 11265 05-25-18
69 Aitamen 35.0% 11349 05-25-18
70 elecmouse101 34.6% 11415 05-25-18
71 BigAL49 34.6% 11416 05-25-18
72 danieldude 34.4% 11444 05-25-18
73 Austinf 33.6% 11592 05-25-18
74 metanightmare22 33.3% 11637 05-25-18
75 Cyan Ryan 33.2% 11659 05-25-18
76 dabestgamer 32.9% 11714 05-25-18
77 MiStEr_ShAoLiN 32.8% 11722 05-25-18
78 Andrea Ritsu 32.1% 11855 05-25-18
79 itsPersonnal 31.7% 11925 05-25-18
80 Cybrax 31.0% 12037 05-25-18
81 JamminX42 30.9% 12063 05-25-18
82 SilvertheAlmighty 30.7% 12093 05-25-18
83 Nim 30.6% 12116 05-25-18
84 VMU Player Banned 29.0% 12401 05-25-18
85 Staf 28.5% 12484 05-25-18
86 Omega Rafael Santos 28.4% 12492 05-25-18
87 The T 28.1% 12557 05-25-18
88 EngiNerd 27.8% 12596 05-25-18
89 lordmetalsonic 27.4% 12681 05-25-18
90 Hipertails12 26.9% 12763 05-25-18
91 welldooder64 26.8% 12776 05-25-18
92 GreatStar 26.6% 12820 05-25-18
93 The Great Lord Mick 26.4% 12844 05-25-18
94 Sondow 26.3% 12859 05-25-18
95 Mastakirby 26.3% 12867 05-25-18
96 LinksDarkArrows 26.1% 12902 05-25-18
97 Skylace 25.2% 13058 05-25-18
98 a_moustache 24.2% 13238 05-25-18
99 Rolken 23.7% 13321 05-25-18
100 Niczur 23.2% 13399 05-25-18
101 Spinballwizard 22.0% 13614 05-25-18
101 Xia 22.0% 13614 05-25-18
103 Kogen Player Banned 22.0% 13618 05-25-18
104 Twilisailor 21.6% 13692 05-25-18
105 f0rever_zer0 21.5% 13708 05-25-18
106 Cutiefox 21.3% 13735 05-25-18
106 Don 21.3% 13735 05-25-18
108 Game_Complete 21.2% 13752 05-25-18
109 Miles9999 21.1% 13771 05-25-18
110 andres430 20.7% 13849 05-25-18
111 Cruizer 20.4% 13888 05-25-18
112 iSonicKid2K 20.3% 13912 05-25-18
113 SADXTryHard 20.1% 13947 05-25-18
114 GarnetPrincess 19.6% 14033 05-25-18
115 N 19.3% 14089 05-25-18
116 AxlThunder 19.0% 14138 05-25-18
117 knuckles_sonic8 18.5% 14228 05-25-18
118 KinkyCadence 18.2% 14278 05-25-18
119 The Knuckles Chao 18.2% 14279 05-25-18
120 Team_Yoshi 17.8% 14343 05-25-18
121 Termon 17.8% 14345 05-25-18
122 LittleBigness 17.7% 14358 05-25-18
123 SonicWinDX 17.6% 14380 05-25-18
124 FoxBoy 17.5% 14397 05-25-18
125 Drakodan 16.8% 14516 05-25-18
126 Sonic Singularity 15.9% 14686 05-25-18
127 Pokemonmaster888 15.6% 14742 05-25-18
128 paulie9990 15.2% 14804 05-25-18
129 SilverSonic 14.6% 14913 05-25-18
130 MPit08 14.4% 14936 05-25-18
131 WeegeeZV 14.2% 14978 05-25-18
132 koinu93 14.1% 15000 05-25-18
133 Mo Player Banned 14.1% 15004 05-25-18
134 HyperSonic64 13.6% 15083 05-25-18
135 Cod4Scopes 13.6% 15084 05-25-18
136 booo95 13.4% 15110 05-25-18
137 Chawkk 13.3% 15128 05-25-18
137 Jerzia 13.3% 15128 05-25-18
139 Hunters13 13.1% 15175 05-25-18
140 SuperSonic101 13.1% 15177 05-25-18
141 Maxinfamily 13.0% 15195 05-25-18
142 Kanimayo_Jp 12.6% 15260 05-25-18
143 LilZero 12.6% 15261 05-25-18
144 BrokenArthritis 12.5% 15283 05-25-18
145 PsyBorg 12.4% 15299 05-25-18
146 Flying Fox 12.3% 15306 05-25-18
147 Therio 12.0% 15360 05-25-18
148 sonicspeed 11.8% 15389 05-25-18
149 douglas 11.8% 15403 05-25-18
150 Matt_TY 11.4% 15467 05-25-18
151 thewaytodawnnn 11.4% 15473 05-25-18
152 ModifiedMonkee 11.2% 15505 05-25-18
153 Cooljay 10.8% 15567 05-25-18
154 SuperBlitzCraig 10.7% 15588 05-25-18
155 joecoolgames 10.6% 15600 05-25-18
156 SeaWolf 10.6% 15604 05-25-18
157 videogamer1014 10.5% 15632 05-25-18
158 AC-Tygo 10.2% 15677 05-25-18
159 welshmoose05 10.2% 15685 05-25-18
160 OddCook 9.9% 15722 05-25-18
161 crazy1993 9.9% 15729 05-25-18
162 TFEC Headshot 9.8% 15744 05-25-18
163 Mcshuggets 9.7% 15768 05-25-18
164 niscool 9.4% 15814 05-25-18
165 Mariobutch 9.3% 15832 05-25-18
166 Irregular Zero 9.3% 15842 05-25-18
166 nuckrieg 9.3% 15842 05-25-18
168 SonicAD 9.2% 15860 05-25-18
169 Shadowthegreat 9.0% 15886 05-25-18
170 superjupi 9.0% 15888 05-25-18
171 SirTobbii 9.0% 15893 05-25-18
172 sonamyfan666 8.7% 15937 05-25-18
173 iarebored 8.6% 15950 05-25-18
174 Powerjohn25 8.6% 15953 05-25-18
175 SaviourDC 8.6% 15959 05-25-18
176 SonicKnuckles 8.6% 15962 05-25-18
177 Werey 8.2% 16023 05-25-18
178 adf 8.2% 16026 05-25-18
179 Megaman EXE565 8.0% 16068 05-25-18
180 ArcticDragon 7.6% 16135 05-25-18
181 Platformer 7.6% 16137 05-25-18
182 timpkmn89 7.5% 16154 05-25-18
183 wheatrich 7.4% 16169 05-25-18
184 Swift Hobo 7.3% 16182 05-25-18
185 FocusSight64 7.3% 16184 05-25-18
186 Rickyman48 7.1% 16218 05-25-18
187 KitsuneYamaro 7.0% 16232 05-25-18
188 Triseena 6.9% 16259 05-25-18
189 Destroyer121121 6.6% 16312 05-25-18
190 dShadow 6.6% 16313 05-25-18
191 Starlight Sable 6.5% 16324 05-25-18
192 CyberShadow 6.5% 16329 05-25-18
193 slade23 6.4% 16333 05-25-18
194 IsisDazs 6.3% 16359 05-25-18
195 BlankTH 6.1% 16393 05-25-18
196 Monkeh 6.1% 16401 05-25-18
197 Redd 5.9% 16419 05-25-18
198 Badlex727 5.9% 16423 05-25-18
199 SonicU260 5.9% 16433 05-25-18
200 Richied 5.8% 16450 05-25-18
201 DaDude 5.7% 16469 05-25-18
201 Swinkly 5.7% 16469 05-25-18
203 Crispian 5.6% 16472 05-25-18
204 Vicklaw 5.6% 16483 05-25-18
205 sonicd5 5.6% 16485 05-25-18
206 Zip 5.5% 16489 05-25-18
207 VeritasDL 5.2% 16550 05-25-18
208 ALundstrom10 5.2% 16554 05-25-18
209 tal39h 5.1% 16559 05-25-18
210 Kirbymon30 5.1% 16576 05-25-18
211 soniccoloursunleashed 5.0% 16590 05-25-18
212 Drflash55 4.9% 16601 05-25-18
213 Bass 4.9% 16609 05-25-18
214 neaolas 4.7% 16631 05-25-18
215 superiorsonic 4.7% 16637 05-25-18
216 zapp 4.7% 16646 05-25-18
217 Yish 4.6% 16649 05-25-18
218 UninspiredUsername 4.6% 16656 05-25-18
219 Sonicsuperstar1 4.5% 16669 05-25-18
220 gamefreak1292 4.5% 16678 05-25-18
221 Sora_yx 4.3% 16707 05-25-18
222 Chaos_Overlord 4.1% 16734 05-25-18
223 TakaRikka 4.0% 16755 05-25-18
224 Valfore 4.0% 16759 05-25-18
225 Dage4Aquatic 3.9% 16782 05-25-18
226 ShinigamiMachine 3.8% 16796 05-25-18
227 Regano1000 3.8% 16803 05-25-18
228 MK 3.7% 16816 05-25-18
229 Ace747 3.6% 16836 05-25-18
230 Jua Rever 3.4% 16859 05-25-18
231 Illidan 3.2% 16908 05-25-18
232 HHNNBBHHN 3.1% 16913 05-25-18
233 Venick409 3.1% 16915 05-25-18
234 Brian_pso 3.1% 16916 05-25-18
235 Sithwarrior26 3.1% 16917 05-25-18
236 nman36 3.1% 16919 05-25-18
237 Egor305 3.0% 16940 05-25-18
237 SkyBon 3.0% 16940 05-25-18
239 ingx24 2.9% 16946 05-25-18
240 TheChaosEmeraIds 2.9% 16951 05-25-18
241 dekki1234 2.9% 16956 05-25-18
242 Nickson98 2.9% 16958 05-25-18
243 Fozer 2.8% 16972 05-25-18
244 Colomb_30 2.8% 16975 05-25-18
244 FSSRandomvids 2.8% 16975 05-25-18
246 Aiko 2.7% 16987 05-25-18
247 sonic29887 2.7% 16991 05-25-18
248 TheUltraBlur 2.6% 17000 05-25-18
249 1stKirbyever 2.6% 17004 05-25-18
250 TimTH 2.5% 17020 05-25-18
251 Th4tN1nj4Turtl3 2.4% 17041 05-25-18
252 Cort_pso 2.3% 17052 05-25-18
253 ieatatsonic 2.3% 17058 05-25-18
254 Mariosonic15 2.2% 17066 05-25-18
255 Doom-9 2.2% 17068 05-25-18
256 Artie 2.2% 17079 05-25-18
257 MStitomix 2.2% 17082 05-25-18
258 HermitHelmet 2.1% 17086 05-25-18
259 Got4n 2.0% 17107 05-25-18
259 SuperSonic71087 2.0% 17107 05-25-18
261 Jose_15 2.0% 17117 05-25-18
262 Questionguy555 1.9% 17120 05-25-18
263 djmat 1.9% 17133 05-25-18
264 SuperSonicfan9595 1.8% 17138 05-25-18
265 sonicandamy Player Banned 1.7% 17155 05-25-18
266 Heroes_Hater 1.7% 17157 05-25-18
267 Paixii 1.7% 17165 05-25-18
268 LancexExWx 1.7% 17166 05-25-18
269 son1cgu1tar 1.7% 17170 05-25-18
270 Mankster101 1.6% 17183 05-25-18
271 BallzeH 1.6% 17184 05-25-18
272 BecauseWarAnvil 1.5% 17190 05-25-18
273 Jamixesa 1.5% 17195 05-25-18
274 SpiritDragon1995 1.5% 17202 05-25-18
275 Shanekilz 1.4% 17205 05-25-18
276 Crydio 1.4% 17206 05-25-18
277 MarewBFN 1.3% 17223 05-25-18
278 stanski 1.3% 17225 05-25-18
279 Sonique Hedgehog 1.3% 17229 05-25-18
280 Blue Infamy 1.2% 17241 05-25-18
281 p0ker 1.2% 17242 05-25-18
282 ArthurVGCP 1.2% 17246 05-25-18
283 ErrortheCucco 1.2% 17252 05-25-18
284 Rikum22 1.2% 17255 05-25-18
285 Arthas 1.1% 17259 05-25-18
286 sonic1001 1.1% 17263 05-25-18
287 syco1098 1.1% 17270 05-25-18
288 WingedInsignia 1.1% 17271 05-25-18
289 AJSIV 1.1% 17272 05-25-18
290 Sonic the Hedgehod16 1.0% 17275 05-25-18
291 ASINISTERTACO 1.0% 17281 05-25-18
292 sonicfan9 1.0% 17287 05-25-18
293 BlackArmsShadow 0.9% 17295 05-25-18
294 themachoman202 0.9% 17296 05-25-18
295 darkstarblaze 0.9% 17300 05-25-18
296 shadowblast63 Player Banned 0.9% 17304 05-25-18
297 Fivavoa 0.9% 17306 05-25-18
298 Greham Adelphis 0.9% 17307 05-25-18
298 MastaToken 0.9% 17307 05-25-18
300 Mr. Jones 0.9% 17308 05-25-18
301 Ben1502 0.8% 17310 05-25-18
302 arcfx1985 0.8% 17311 05-25-18
303 TommyeAsY 0.8% 17313 05-25-18
304 ptorflaxendrosis 0.8% 17314 05-25-18
305 FlandreScarlet9999vr 0.8% 17319 05-25-18
305 Gvozdevik 0.8% 17319 05-25-18
307 Knuckles 0.8% 17320 05-25-18
308 Zeldocto 0.8% 17321 05-25-18
309 BeeAwwb 0.8% 17325 05-25-18
309 KaM Mark MaK 0.8% 17325 05-25-18
311 ShadouZaHejjihoggu 0.7% 17332 05-25-18
312 Sarger001 0.7% 17337 05-25-18
313 Sonic The Star 0.7% 17340 05-25-18
314 darkersupershadic 0.7% 17341 05-25-18
314 dragondragon18 0.7% 17341 05-25-18
314 Sonic62 0.7% 17341 05-25-18
317 R3FR4G 0.7% 17343 05-25-18
318 Sogeking 0.7% 17344 05-25-18
319 Shadygamerfreak 0.6% 17348 05-25-18
320 Grady219 0.6% 17349 05-25-18
320 SonicK100 0.6% 17349 05-25-18
322 BioShadow 0.6% 17350 05-25-18
323 Jawaah 0.6% 17356 05-25-18
324 Antek 0.6% 17358 05-25-18
325 Klaus 0.6% 17360 05-25-18
325 SilverK 0.6% 17360 05-25-18
327 SpinDashMaster 0.5% 17365 05-25-18
328 Videogamer123 0.5% 17371 05-25-18
329 oTaiIilLsS 0.4% 17385 05-25-18
330 isaihtb11 0.4% 17386 05-25-18
331 zaktu40 0.4% 17388 05-25-18
332 OhNoes! 0.4% 17389 05-25-18
333 gaara1234 0.4% 17391 05-25-18
334 Mad Andy 0.4% 17392 05-25-18
335 S-MS32X-S 0.4% 17393 05-25-18
336 gamed00d 0.4% 17394 05-25-18
337 Mister_Slick 0.3% 17405 05-25-18
338 Rush Hero 0.3% 17408 05-25-18
338 Sonic06Fan 0.3% 17408 05-25-18
340 ChaosNexuss 0.3% 17409 05-25-18
341 SonicMega167 0.3% 17414 05-25-18
342 Iwannabelink 0.2% 17415 05-25-18
343 sonknuck23 0.2% 17419 05-25-18
344 gamer1245 0.2% 17427 05-25-18
345 DanielTheFalcon 0.2% 17429 05-25-18
346 Burningskull123 0.1% 17433 05-25-18
347 Sonicontherun 0.1% 17444 05-25-18
348 Lil_Dude 0.1% 17449 05-25-18
349 antiwwe 0.0% 17450 05-25-18
350 Tyrouble 0.0% 17452 05-25-18
351 Genuine Hedgehog 0.0% 17453 05-25-18
351 SonataSpinDash 0.0% 17453 05-25-18
353 Cbwade15 0.0% 17456 05-25-18
354 MegabombBlade 0.0% 17467 05-25-18
354 neji_hyuuga 0.0% 17467 05-25-18
354 Over 0.0% 17467 05-25-18
354 sdj6707 Player Banned 0.0% 17467 05-25-18
354 Tran Sonic Fan Player Banned 0.0% 17467 05-25-18

This page is using the New Data Table System. [FUTURE]

Game ID: 3 | Category ID: 10
Hits: 72,560 | Hits This Month: 170 | DB Calls: 21 | Mem Usage: 5.48 MB | Time: 0.15s | Printable

The Sonic Center v3.9
Copyright 2003-2011 by The Sonic Center Team.